createdAt,value
2023-03-27T00:03:10.636Z,2.15
2023-03-27T00:07:10.742Z,1.75
2023-03-27T00:11:10.909Z,2.10
2023-03-27T00:15:11.025Z,1.53
2023-03-27T00:19:11.154Z,2.14
2023-03-27T00:23:11.313Z,2.20
2023-03-27T00:27:11.468Z,2.12
2023-03-27T00:31:11.709Z,1.97
2023-03-27T00:35:11.723Z,1.83
2023-03-27T00:39:11.884Z,1.48
2023-03-27T00:43:12.035Z,2.03
2023-03-27T00:47:12.137Z,1.34
2023-03-27T00:51:12.264Z,1.87
2023-03-27T00:55:12.400Z,1.75
2023-03-27T00:59:12.590Z,1.56
2023-03-27T01:03:12.726Z,2.12
2023-03-27T01:07:12.856Z,1.85
2023-03-27T01:11:12.966Z,1.61
2023-03-27T01:15:13.081Z,1.80
2023-03-27T01:19:13.208Z,2.08
2023-03-27T01:23:13.331Z,1.74
2023-03-27T01:27:13.455Z,1.44
2023-03-27T01:31:13.660Z,1.76
2023-03-27T01:35:13.749Z,1.85
2023-03-27T01:39:13.901Z,1.49
2023-03-27T01:43:14.106Z,1.60
2023-03-27T01:47:14.211Z,1.39
2023-03-27T01:51:14.329Z,1.44
2023-03-27T01:55:14.461Z,1.60
2023-03-27T01:59:14.607Z,1.85
2023-03-27T02:03:14.755Z,1.36
2023-03-27T02:07:14.889Z,1.75
2023-03-27T02:11:15.022Z,1.80
2023-03-27T02:15:23.100Z,1.74
2023-03-27T02:19:16.148Z,1.29
2023-03-27T02:23:15.147Z,1.52
2023-03-27T02:27:15.084Z,1.66
2023-03-27T02:31:32.464Z,1.45
2023-03-27T02:35:16.218Z,1.20
2023-03-27T02:39:15.172Z,1.86
2023-03-27T02:43:15.154Z,1.44
2023-03-27T02:47:15.351Z,1.51
2023-03-27T02:51:15.524Z,1.17
2023-03-27T02:55:15.692Z,1.56
2023-03-27T02:59:15.853Z,1.30
2023-03-27T03:03:16.089Z,1.47
2023-03-27T03:07:16.254Z,1.17
2023-03-27T03:11:16.431Z,0.83
2023-03-27T03:15:16.584Z,1.24
2023-03-27T03:19:16.819Z,1.58
2023-03-27T03:23:16.963Z,1.06
2023-03-27T03:27:17.176Z,1.10
2023-03-27T03:31:17.408Z,1.07
2023-03-27T03:35:17.572Z,1.30
2023-03-27T03:39:17.789Z,1.33
2023-03-27T03:43:18.013Z,1.08
2023-03-27T03:47:18.204Z,0.84
2023-03-27T03:51:18.412Z,1.02
2023-03-27T03:55:18.607Z,0.86
2023-03-27T03:59:18.853Z,0.79
2023-03-27T04:03:18.870Z,0.91
2023-03-27T04:07:18.763Z,0.67
2023-03-27T04:11:18.726Z,0.53
2023-03-27T04:15:18.659Z,0.57
2023-03-27T04:19:18.598Z,0.98
2023-03-27T04:23:18.603Z,0.43
2023-03-27T04:27:18.598Z,0.47
2023-03-27T04:31:18.579Z,0.58
2023-03-27T04:35:18.474Z,0.96
2023-03-27T04:39:18.533Z,0.57
2023-03-27T04:43:18.721Z,0.58
2023-03-27T04:47:18.598Z,0.38
2023-03-27T04:51:18.594Z,0.47
2023-03-27T04:55:18.599Z,0.46
2023-03-27T04:59:18.520Z,0.40
2023-03-27T05:03:18.561Z,0.49
2023-03-27T05:07:18.453Z,0.37
2023-03-27T05:11:18.473Z,0.37
2023-03-27T05:15:18.373Z,0.57
2023-03-27T05:19:18.342Z,0.34
2023-03-27T05:23:18.285Z,0.32
2023-03-27T05:27:18.265Z,0.50
2023-03-27T05:31:18.215Z,0.62
2023-03-27T05:35:18.251Z,0.39
2023-03-27T05:39:18.563Z,0.49
2023-03-27T05:43:18.549Z,0.62
2023-03-27T05:47:18.036Z,0.53
2023-03-27T05:51:18.107Z,0.68
2023-03-27T05:55:18.578Z,0.95
2023-03-27T05:59:18.111Z,1.01
2023-03-27T06:03:18.172Z,1.19
2023-03-27T06:07:17.978Z,1.33
2023-03-27T06:11:18.076Z,1.13
2023-03-27T06:15:17.890Z,1.83
2023-03-27T06:19:17.839Z,1.82
2023-03-27T06:23:17.803Z,2.04
2023-03-27T06:27:17.769Z,2.21
2023-03-27T06:31:18.132Z,2.01
2023-03-27T06:35:17.752Z,2.38
2023-03-27T06:39:17.658Z,3.08
2023-03-27T06:43:17.625Z,2.44
2023-03-27T06:47:18.141Z,3.38
2023-03-27T06:51:17.597Z,3.03
2023-03-27T06:55:17.538Z,3.05
2023-03-27T06:59:17.505Z,4.96
2023-03-27T07:03:17.671Z,3.18
2023-03-27T07:07:17.532Z,4.51
2023-03-27T07:15:17.567Z,4.05
2023-03-27T07:19:17.626Z,3.15
2023-03-27T07:23:18.135Z,2.89
2023-03-27T07:27:17.937Z,2.30
2023-03-27T07:35:17.908Z,3.39
2023-03-27T07:39:18.163Z,3.34
2023-03-27T07:43:17.813Z,3.24
2023-03-27T07:47:18.118Z,3.43
2023-03-27T07:51:18.107Z,2.68
2023-03-27T07:55:18.117Z,2.37
2023-03-27T07:59:17.676Z,2.02
2023-03-27T08:03:17.708Z,1.56
2023-03-27T08:07:17.690Z,1.30
2023-03-27T08:11:27.802Z,2.49
2023-03-27T08:15:18.634Z,1.37
2023-03-27T08:19:17.502Z,1.25
2023-03-27T08:23:17.459Z,0.86
2023-03-27T08:27:17.643Z,0.64
2023-03-27T08:31:17.663Z,0.99
2023-03-27T08:35:17.739Z,0.76
2023-03-27T08:39:17.677Z,2.00
2023-03-27T08:43:18.160Z,1.86
2023-03-27T08:47:18.129Z,1.60
2023-03-27T08:51:18.151Z,1.25
2023-03-27T08:55:17.865Z,2.31
2023-03-27T08:59:17.855Z,2.93
2023-03-27T09:03:18.232Z,1.85
2023-03-27T09:07:17.774Z,1.27
2023-03-27T09:11:19.873Z,1.95
2023-03-27T09:15:17.793Z,1.51
2023-03-27T09:19:17.714Z,1.51
2023-03-27T09:23:19.831Z,1.49
2023-03-27T09:27:17.694Z,1.38
2023-03-27T09:31:17.564Z,1.48
2023-03-27T09:35:17.837Z,2.67
2023-03-27T09:39:17.684Z,1.98
2023-03-27T09:43:17.774Z,3.56
2023-03-27T09:47:17.430Z,1.67
2023-03-27T09:51:17.667Z,2.92
2023-03-27T09:55:17.691Z,2.19
2023-03-27T09:59:17.329Z,2.16
2023-03-27T10:03:17.368Z,2.19
2023-03-27T10:07:17.699Z,4.26
2023-03-27T10:11:17.245Z,1.56
2023-03-27T10:15:24.672Z,2.23
2023-03-27T10:19:17.113Z,1.98
2023-03-27T10:23:17.122Z,2.44
2023-03-27T10:27:17.051Z,3.09
2023-03-27T10:31:17.206Z,1.76
2023-03-27T10:35:17.043Z,1.84
2023-03-27T10:39:17.730Z,2.57
2023-03-27T10:43:17.746Z,2.59
2023-03-27T10:47:17.309Z,2.26
2023-03-27T10:51:17.701Z,2.96
2023-03-27T10:55:17.244Z,2.66
2023-03-27T10:59:21.567Z,2.49
2023-03-27T11:03:18.375Z,2.58
2023-03-27T11:07:17.693Z,2.29
2023-03-27T11:11:17.814Z,2.74
2023-03-27T11:19:18.193Z,3.13
2023-03-27T11:23:18.754Z,2.72
2023-03-27T11:27:18.557Z,1.72
2023-03-27T11:31:18.722Z,2.19
2023-03-27T11:35:19.205Z,2.81
2023-03-27T11:39:19.216Z,1.78
2023-03-27T11:47:19.209Z,1.50
2023-03-27T11:55:19.219Z,1.24
2023-03-27T12:03:19.329Z,1.67
2023-03-27T12:11:18.796Z,1.33
2023-03-27T12:23:18.758Z,1.55
2023-03-27T12:43:18.494Z,0.86
2023-03-27T17:27:22.996Z,0.57
2023-03-27T17:31:23.017Z,0.65
2023-03-27T17:35:22.937Z,0.56
2023-03-27T17:39:22.902Z,0.73
2023-03-27T17:43:22.866Z,0.82
2023-03-27T17:47:22.898Z,0.53
2023-03-27T17:51:22.801Z,0.55
2023-03-27T17:55:22.797Z,1.14
2023-03-27T17:59:22.715Z,0.83
2023-03-27T18:03:22.717Z,0.73
2023-03-27T18:07:22.665Z,0.61
2023-03-27T18:11:22.655Z,0.87
2023-03-27T18:15:22.621Z,0.58
2023-03-27T18:19:22.557Z,0.66
2023-03-27T18:23:22.586Z,0.83
2023-03-27T18:27:22.629Z,0.78
2023-03-27T18:31:22.798Z,0.80
2023-03-27T18:35:22.807Z,1.17
2023-03-27T18:39:22.897Z,1.04
2023-03-27T18:43:22.962Z,0.55
2023-03-27T18:47:23.090Z,0.80
2023-03-27T18:51:23.178Z,1.17
2023-03-27T18:55:23.237Z,0.87
2023-03-27T18:59:23.353Z,1.19
2023-03-27T19:03:23.570Z,1.07
2023-03-27T19:07:23.526Z,0.90
2023-03-27T19:11:23.536Z,0.84
2023-03-27T19:15:23.639Z,1.02
2023-03-27T19:19:23.721Z,1.18
2023-03-27T19:23:23.809Z,0.89
2023-03-27T19:27:25.007Z,1.00
2023-03-27T19:31:24.081Z,1.03
2023-03-27T19:35:24.023Z,1.38
2023-03-27T19:39:24.127Z,0.92
2023-03-27T19:43:24.197Z,1.37
2023-03-27T19:47:24.355Z,1.07
2023-03-27T19:51:24.354Z,1.04
2023-03-27T19:55:24.926Z,1.13
2023-03-27T19:59:30.900Z,1.23
2023-03-27T20:07:24.520Z,1.09
2023-03-27T20:11:24.506Z,1.34
2023-03-27T20:15:24.415Z,2.28
2023-03-27T20:19:24.522Z,1.28
2023-03-27T20:23:24.617Z,1.19
2023-03-27T20:27:24.733Z,1.33
2023-03-27T20:31:24.915Z,1.32
2023-03-27T20:35:25.235Z,0.89
2023-03-27T20:59:25.788Z,1.20
2023-03-27T22:15:29.320Z,0.99
2023-03-27T22:19:29.494Z,1.31
2023-03-27T22:23:29.822Z,1.01
2023-03-27T22:27:29.958Z,1.39
2023-03-27T22:31:30.212Z,1.22
2023-03-27T22:35:30.432Z,1.05
2023-03-27T22:39:30.593Z,1.17
2023-03-27T22:43:30.572Z,1.13
2023-03-27T22:47:30.583Z,1.32
2023-03-27T22:51:30.555Z,1.22
2023-03-27T22:55:30.463Z,1.05
2023-03-27T22:59:30.406Z,0.82
2023-03-27T23:03:30.522Z,1.01
2023-03-27T23:07:30.381Z,0.94
2023-03-27T23:11:30.338Z,0.90
2023-03-27T23:15:30.554Z,1.25
2023-03-27T23:19:30.345Z,1.41
